Time;durP1;ratioP1;P1;durP2;ratioP2;P2;SDS_P1;SDS_P2;PMS_P1;PMS_P2;Temp;Humidity;BMP_temperature;BMP_pressure;BME280_temperature;BME280_humidity;BME280_pressure;Samples;Min_cycle;Max_cycle;Signal;HPM_P1;HPM_P2
2022/01/30 00:01:33;;;;;;;8.57;1.63;;;4.90;99.90;;;;;;4161876;28;20492;-77
2022/01/30 00:03:35;;;;;;;11.50;1.40;;;4.90;99.90;;;;;;4166255;28;20555;-78
2022/01/30 00:05:37;;;;;;;8.33;1.77;;;4.90;99.90;;;;;;4165186;28;20468;-78
2022/01/30 00:07:42;;;;;;;8.60;1.23;;;4.90;99.90;;;;;;4173330;28;20454;-79
2022/01/30 00:09:45;;;;;;;8.87;1.57;;;4.90;99.90;;;;;;4181151;28;20487;-76
2022/01/30 00:11:52;;;;;;;5.17;0.87;;;4.90;99.90;;;;;;4158393;28;20969;-79
2022/01/30 00:13:54;;;;;;;3.90;0.73;;;4.90;99.90;;;;;;4178630;28;20449;-78
2022/01/30 00:15:56;;;;;;;8.97;1.17;;;4.90;99.90;;;;;;4167203;28;20800;-77
2022/01/30 00:18:09;;;;;;;8.03;0.90;;;5.00;99.90;;;;;;4163916;28;20474;-78
2022/01/30 00:20:17;;;;;;;2.47;0.73;;;5.00;99.90;;;;;;4168949;28;20564;-80
2022/01/30 00:22:26;;;;;;;3.60;1.20;;;5.00;99.90;;;;;;4173320;28;21024;-79
2022/01/30 00:24:42;;;;;;;6.50;1.00;;;5.00;99.90;;;;;;4167933;28;20465;-79
2022/01/30 00:26:47;;;;;;;5.27;0.83;;;5.00;99.90;;;;;;4161361;28;20500;-79
2022/01/30 00:28:48;;;;;;;11.43;1.23;;;5.00;99.90;;;;;;4167894;28;20544;-78
2022/01/30 00:30:50;;;;;;;8.57;1.30;;;5.00;99.90;;;;;;4168333;28;21060;-77
2022/01/30 00:32:52;;;;;;;8.00;2.17;;;5.00;99.90;;;;;;4164602;28;20951;-78
2022/01/30 00:34:54;;;;;;;10.40;1.47;;;5.00;99.90;;;;;;4166666;28;20891;-79
2022/01/30 00:36:55;;;;;;;7.67;1.03;;;5.00;99.90;;;;;;4168501;28;20521;-79
2022/01/30 00:38:58;;;;;;;9.70;1.73;;;5.00;99.90;;;;;;4174090;28;20467;-79
2022/01/30 00:41:00;;;;;;;7.90;1.23;;;4.90;99.90;;;;;;4168839;28;20853;-80
2022/01/30 00:43:03;;;;;;;6.27;1.20;;;4.90;99.90;;;;;;4165115;28;20994;-79
2022/01/30 00:45:06;;;;;;;5.50;1.07;;;4.90;99.90;;;;;;4160896;28;20930;-77
2022/01/30 00:47:13;;;;;;;4.47;1.07;;;4.90;99.90;;;;;;4166316;28;20497;-79
2022/01/30 00:49:14;;;;;;;6.60;1.03;;;4.80;99.90;;;;;;4167499;28;20465;-78
2022/01/30 00:51:17;;;;;;;5.50;1.03;;;4.80;99.90;;;;;;4166886;28;20478;-78
2022/01/30 00:53:20;;;;;;;9.50;1.20;;;4.80;99.90;;;;;;4162822;28;20842;-77
2022/01/30 00:55:22;;;;;;;5.60;0.90;;;4.80;99.90;;;;;;4151879;28;20521;-78
2022/01/30 00:57:24;;;;;;;5.87;1.00;;;4.80;99.90;;;;;;4167135;28;20507;-78
2022/01/30 00:59:27;;;;;;;6.07;1.00;;;4.80;99.90;;;;;;4168376;28;20826;-78
2022/01/30 01:01:29;;;;;;;7.47;0.90;;;4.80;99.90;;;;;;4168313;28;20471;-78
2022/01/30 01:03:30;;;;;;;5.13;1.00;;;4.70;99.90;;;;;;4172563;28;20547;-78
2022/01/30 01:05:34;;;;;;;4.77;1.10;;;4.70;99.90;;;;;;4173281;28;20512;-79
2022/01/30 01:07:40;;;;;;;7.93;1.00;;;4.70;99.90;;;;;;4170603;28;21030;-78
2022/01/30 01:09:53;;;;;;;10.33;1.27;;;5.00;99.90;;;;;;4175053;28;21085;-79
2022/01/30 01:12:24;;;;;;;7.50;1.10;;;4.70;99.90;;;;;;4180213;28;20458;-79
2022/01/30 01:23:53;;;;;;;8.73;1.47;;;4.70;99.90;;;;;;4170978;28;20484;-78
2022/01/30 01:25:56;;;;;;;7.17;1.17;;;4.60;99.90;;;;;;4169361;28;20450;-79
2022/01/30 01:27:59;;;;;;;15.57;1.80;;;4.60;99.90;;;;;;4148221;28;21009;-79
2022/01/30 01:30:01;;;;;;;9.73;1.40;;;4.60;99.90;;;;;;4161448;28;20547;-79
2022/01/30 01:32:05;;;;;;;9.07;1.43;;;4.60;99.90;;;;;;4165957;28;20454;-79
2022/01/30 01:34:21;;;;;;;10.37;1.40;;;4.60;99.90;;;;;;4164404;28;20450;-79
2022/01/30 01:36:24;;;;;;;6.73;1.07;;;4.60;99.90;;;;;;4155482;28;20518;-79
2022/01/30 01:38:25;;;;;;;12.40;1.67;;;4.50;99.90;;;;;;4172953;28;20457;-79
2022/01/30 01:40:27;;;;;;;12.67;1.73;;;4.50;99.90;;;;;;4167711;28;20891;-79
2022/01/30 01:42:33;;;;;;;10.50;1.70;;;4.50;99.90;;;;;;4164899;28;20462;-79
2022/01/30 01:44:41;;;;;;;7.00;1.30;;;4.50;99.90;;;;;;4160539;28;20490;-79
2022/01/30 01:46:44;;;;;;;9.40;1.43;;;4.40;99.90;;;;;;4159439;28;20517;-79
2022/01/30 01:48:50;;;;;;;10.80;1.60;;;4.40;99.90;;;;;;4158185;28;20527;-79
2022/01/30 01:50:55;;;;;;;6.30;1.70;;;4.40;99.90;;;;;;4164902;28;20497;-79
2022/01/30 01:52:57;;;;;;;9.50;1.40;;;4.40;99.90;;;;;;4165679;28;20478;-79
2022/01/30 01:55:00;;;;;;;12.13;1.70;;;4.40;99.90;;;;;;4172792;28;20674;-79
2022/01/30 01:57:03;;;;;;;8.27;1.10;;;4.40;99.90;;;;;;4160460;28;20483;-78
2022/01/30 01:59:05;;;;;;;7.00;1.43;;;4.40;99.90;;;;;;4147626;28;20459;-79
2022/01/30 02:01:07;;;;;;;3.93;1.07;;;4.30;99.90;;;;;;4156135;28;20535;-79
2022/01/30 02:04:00;;;;;;;10.67;1.60;;;4.40;99.90;;;;;;4168756;28;20485;-79
2022/01/30 02:06:59;;;;;;;9.43;1.67;;;4.40;99.90;;;;;;4165806;28;20540;-78
2022/01/30 02:09:09;;;;;;;8.87;1.33;;;4.30;99.90;;;;;;4167466;28;20481;-78
2022/01/30 02:11:15;;;;;;;18.10;2.20;;;4.30;99.90;;;;;;4167063;28;20472;-77
2022/01/30 02:13:47;;;;;;;9.50;2.13;;;4.30;99.90;;;;;;4165063;28;20462;-74
2022/01/30 02:25:28;;;;;;;7.63;1.57;;;4.10;99.90;;;;;;4153129;28;20484;-77
2022/01/30 02:27:34;;;;;;;6.83;1.33;;;4.10;99.90;;;;;;4164519;28;20817;-76
2022/01/30 02:29:39;;;;;;;7.80;1.40;;;4.10;99.90;;;;;;4164209;28;20476;-77
2022/01/30 02:31:42;;;;;;;12.47;1.53;;;4.10;99.90;;;;;;4161708;28;20490;-76
2022/01/30 02:33:53;;;;;;;8.73;1.70;;;4.00;99.90;;;;;;4168465;28;20470;-76
2022/01/30 02:35:55;;;;;;;7.50;1.30;;;4.00;99.90;;;;;;4164679;28;20441;-76
2022/01/30 02:38:00;;;;;;;12.83;1.80;;;4.00;99.90;;;;;;4163564;28;20824;-77
2022/01/30 02:40:04;;;;;;;8.13;1.50;;;4.00;99.90;;;;;;4163496;28;20490;-77
2022/01/30 02:42:06;;;;;;;7.47;1.43;;;4.00;99.90;;;;;;4173705;28;20508;-78
2022/01/30 02:44:14;;;;;;;8.67;1.43;;;4.00;99.90;;;;;;4161492;28;20544;-76
2022/01/30 02:46:25;;;;;;;6.77;1.10;;;3.90;99.90;;;;;;4165147;28;20930;-76
2022/01/30 02:48:33;;;;;;;7.73;1.40;;;4.00;99.90;;;;;;4171762;28;20544;-76
2022/01/30 02:50:39;;;;;;;5.63;1.13;;;4.10;99.90;;;;;;4164510;28;20485;-77
2022/01/30 02:52:43;;;;;;;11.37;1.50;;;4.10;99.90;;;;;;4163683;28;20476;-79
2022/01/30 02:54:48;;;;;;;7.80;1.10;;;4.10;99.90;;;;;;4163735;28;20538;-77
2022/01/30 02:56:50;;;;;;;4.57;1.17;;;4.10;99.90;;;;;;4164556;28;20497;-77
2022/01/30 02:58:52;;;;;;;5.97;1.30;;;4.10;99.90;;;;;;4164464;28;20485;-77
2022/01/30 03:00:54;;;;;;;7.13;1.53;;;4.10;99.90;;;;;;4164608;28;20473;-77
2022/01/30 03:02:55;;;;;;;8.43;1.10;;;4.10;99.90;;;;;;4159095;28;20513;-76
2022/01/30 03:04:57;;;;;;;9.43;1.30;;;3.80;99.90;;;;;;4164520;28;20516;-77
2022/01/30 03:06:59;;;;;;;5.87;1.20;;;4.20;99.90;;;;;;4167950;28;20875;-77
2022/01/30 03:09:10;;;;;;;7.60;1.53;;;4.10;99.90;;;;;;4164641;28;20458;-75
2022/01/30 03:11:13;;;;;;;7.07;1.17;;;4.20;99.90;;;;;;4163530;28;20481;-75
2022/01/30 03:13:14;;;;;;;6.27;1.17;;;4.20;99.90;;;;;;4161036;28;20474;-75
2022/01/30 03:15:16;;;;;;;10.87;1.67;;;4.20;99.90;;;;;;4163402;28;20461;-75
2022/01/30 03:17:18;;;;;;;9.13;1.90;;;4.20;99.90;;;;;;4164213;28;20445;-77
2022/01/30 03:19:20;;;;;;;11.23;1.70;;;4.20;99.90;;;;;;4161705;28;20462;-75
2022/01/30 03:21:22;;;;;;;7.90;1.37;;;4.20;99.90;;;;;;4161003;28;20466;-76
2022/01/30 03:23:26;;;;;;;7.83;1.20;;;4.20;99.90;;;;;;4169321;28;20449;-76
2022/01/30 03:25:30;;;;;;;5.70;1.30;;;4.20;99.90;;;;;;4157460;28;20462;-75
2022/01/30 03:27:38;;;;;;;6.97;1.67;;;4.20;99.90;;;;;;4161018;28;20852;-75
2022/01/30 03:29:41;;;;;;;10.53;1.70;;;4.20;99.90;;;;;;4163573;28;20592;-74
2022/01/30 03:31:43;;;;;;;9.93;1.20;;;4.20;99.90;;;;;;4163771;28;20484;-75
2022/01/30 03:33:44;;;;;;;12.23;1.63;;;4.50;99.90;;;;;;4168277;28;20877;-74
2022/01/30 03:35:46;;;;;;;8.73;1.40;;;4.20;99.90;;;;;;4163613;28;20474;-75
2022/01/30 03:37:49;;;;;;;8.27;1.20;;;4.20;99.90;;;;;;4167680;28;20461;-75
2022/01/30 03:39:50;;;;;;;13.10;1.70;;;4.10;99.90;;;;;;4163530;28;20839;-75
2022/01/30 03:41:52;;;;;;;5.10;1.33;;;4.10;99.90;;;;;;4163597;28;20604;-75
2022/01/30 03:43:55;;;;;;;10.03;1.50;;;4.10;99.90;;;;;;4161182;28;20498;-78
2022/01/30 03:45:57;;;;;;;11.03;1.40;;;4.10;99.90;;;;;;4163168;28;20833;-74
2022/01/30 03:47:59;;;;;;;8.37;2.10;;;4.10;99.90;;;;;;4163648;28;20478;-74
2022/01/30 03:50:00;;;;;;;7.93;1.37;;;4.10;99.90;;;;;;4162893;28;20477;-75
2022/01/30 03:52:02;;;;;;;5.13;1.50;;;4.00;99.90;;;;;;4166816;28;20581;-75
2022/01/30 03:54:04;;;;;;;7.73;1.40;;;4.00;99.90;;;;;;4163376;28;20469;-76
2022/01/30 03:56:06;;;;;;;8.20;1.53;;;4.30;99.90;;;;;;4163221;28;20963;-77
2022/01/30 03:58:08;;;;;;;10.53;1.40;;;4.00;99.90;;;;;;4163152;28;20529;-77
2022/01/30 04:00:13;;;;;;;7.37;1.60;;;4.00;99.90;;;;;;4161338;28;20573;-74
2022/01/30 04:02:14;;;;;;;6.53;1.27;;;4.00;99.90;;;;;;4159666;28;20827;-76
2022/01/30 04:04:16;;;;;;;11.20;1.20;;;4.00;99.90;;;;;;4163813;28;20496;-77
2022/01/30 04:06:18;;;;;;;11.40;1.50;;;4.00;99.90;;;;;;4168917;28;20472;-74
2022/01/30 04:08:20;;;;;;;5.97;1.40;;;4.00;99.90;;;;;;4165573;28;20512;-78
2022/01/30 04:10:22;;;;;;;14.87;1.47;;;4.10;99.90;;;;;;4162568;28;20497;-77
2022/01/30 04:12:25;;;;;;;7.90;1.37;;;4.10;99.90;;;;;;4163682;28;20461;-77
2022/01/30 04:14:27;;;;;;;6.47;1.27;;;4.10;99.90;;;;;;4163577;28;20472;-78
2022/01/30 04:16:31;;;;;;;8.60;1.30;;;4.10;99.90;;;;;;4185020;28;20452;-78
2022/01/30 04:18:33;;;;;;;9.20;1.60;;;4.10;99.90;;;;;;4172855;28;20498;-78
2022/01/30 04:20:37;;;;;;;10.63;1.47;;;4.10;99.90;;;;;;4158129;28;20489;-78
2022/01/30 04:22:39;;;;;;;6.13;1.20;;;4.20;99.90;;;;;;4173937;28;20485;-77
2022/01/30 04:24:41;;;;;;;6.77;1.43;;;4.10;99.90;;;;;;4171364;28;20496;-77
2022/01/30 04:26:44;;;;;;;7.40;1.27;;;4.10;99.90;;;;;;4173680;28;20470;-78
2022/01/30 04:28:48;;;;;;;5.53;1.40;;;4.10;99.90;;;;;;4171717;28;20473;-78
2022/01/30 04:30:51;;;;;;;6.77;1.07;;;4.20;99.90;;;;;;4165822;28;20488;-77
2022/01/30 04:32:55;;;;;;;9.80;1.40;;;4.20;99.90;;;;;;4163647;28;20474;-78
2022/01/30 04:34:59;;;;;;;6.53;1.07;;;4.20;99.90;;;;;;4162573;28;20448;-78
2022/01/30 04:37:03;;;;;;;9.30;1.50;;;4.20;99.90;;;;;;4159281;28;20474;-79
2022/01/30 04:39:14;;;;;;;6.33;1.20;;;4.30;99.90;;;;;;4163874;28;20457;-78
2022/01/30 04:41:32;;;;;;;7.13;1.20;;;4.30;99.90;;;;;;4162088;28;20452;-75
2022/01/30 04:53:08;;;;;;;7.10;1.30;;;4.30;99.90;;;;;;4163444;28;20993;-77
2022/01/30 04:56:04;;;;;;;5.73;1.33;;;4.40;99.90;;;;;;4153567;28;20461;-77
2022/01/30 04:58:02;;;;;;;5.20;1.00;;;4.40;99.90;;;;;;4178496;28;20547;-77
2022/01/30 05:00:21;;;;;;;9.60;1.37;;;4.40;99.90;;;;;;4183390;28;21067;-76
2022/01/30 05:02:46;;;;;;;9.77;1.23;;;4.40;99.90;;;;;;4166241;28;20983;-78
2022/01/30 05:05:03;;;;;;;6.63;1.60;;;4.40;99.90;;;;;;4156870;28;20695;-78
2022/01/30 05:09:22;;;;;;;6.53;1.40;;;4.50;99.90;;;;;;4165094;28;20453;-78
2022/01/30 05:11:24;;;;;;;7.13;1.60;;;4.50;99.90;;;;;;4162611;28;20794;-78
2022/01/30 05:13:30;;;;;;;8.43;1.60;;;4.50;99.90;;;;;;4163405;28;20866;-78
2022/01/30 05:15:32;;;;;;;11.87;1.70;;;4.50;99.90;;;;;;4175606;28;20457;-78
2022/01/30 05:17:34;;;;;;;6.37;1.70;;;4.60;99.90;;;;;;4175175;28;20527;-78
2022/01/30 05:19:37;;;;;;;10.23;1.37;;;4.60;99.90;;;;;;4163964;28;20494;-79
2022/01/30 05:21:40;;;;;;;9.27;1.20;;;4.60;99.90;;;;;;4150642;28;20468;-79
2022/01/30 05:23:43;;;;;;;7.27;1.67;;;4.60;99.90;;;;;;4148650;28;20517;-78
2022/01/30 05:25:46;;;;;;;7.67;1.80;;;4.60;99.90;;;;;;4156891;28;20524;-77
2022/01/30 05:27:48;;;;;;;10.00;1.50;;;4.60;99.90;;;;;;4164500;28;20454;-77
2022/01/30 05:29:51;;;;;;;8.03;1.73;;;4.60;99.90;;;;;;4149428;28;20490;-79
2022/01/30 05:31:53;;;;;;;9.03;1.67;;;4.60;99.90;;;;;;4160433;28;20507;-78
2022/01/30 05:33:55;;;;;;;9.13;2.00;;;4.60;99.90;;;;;;4180374;28;20797;-77
2022/01/30 05:35:58;;;;;;;9.43;1.80;;;4.60;99.90;;;;;;4174930;28;20469;-78
2022/01/30 05:38:02;;;;;;;6.50;1.33;;;4.60;99.90;;;;;;4163492;28;20474;-78
2022/01/30 05:40:06;;;;;;;15.53;1.67;;;4.60;99.90;;;;;;4164920;28;20466;-78
2022/01/30 05:42:09;;;;;;;9.67;1.60;;;4.60;99.90;;;;;;4169095;28;20457;-77
2022/01/30 05:44:15;;;;;;;11.40;1.73;;;4.70;99.90;;;;;;4150373;28;21027;-78
2022/01/30 05:46:30;;;;;;;10.90;1.87;;;4.70;99.90;;;;;;4172639;28;20493;-78
2022/01/30 05:48:32;;;;;;;11.37;1.60;;;4.80;99.90;;;;;;4164517;28;20471;-79
2022/01/30 05:50:36;;;;;;;6.03;1.63;;;4.90;99.90;;;;;;4172035;28;20484;-78
2022/01/30 05:52:38;;;;;;;8.30;1.60;;;4.80;99.90;;;;;;4174414;28;20445;-79
2022/01/30 05:54:42;;;;;;;6.50;1.33;;;4.80;99.90;;;;;;4158095;28;21018;-78
2022/01/30 05:56:43;;;;;;;6.50;1.60;;;4.80;99.90;;;;;;4161033;28;20490;-78
2022/01/30 05:58:45;;;;;;;8.53;1.37;;;4.80;99.90;;;;;;4165356;28;20442;-79
2022/01/30 06:00:47;;;;;;;13.90;2.20;;;4.80;99.90;;;;;;4164188;28;20498;-78
2022/01/30 06:02:48;;;;;;;4.10;1.07;;;4.80;99.90;;;;;;4165670;28;20536;-78
2022/01/30 06:04:50;;;;;;;12.47;1.63;;;4.80;99.90;;;;;;4153408;28;20490;-78
2022/01/30 06:06:54;;;;;;;11.23;1.90;;;4.80;99.90;;;;;;4165044;28;20997;-77
2022/01/30 06:09:11;;;;;;;9.33;1.30;;;4.80;99.90;;;;;;4165014;28;20982;-78
2022/01/30 06:11:15;;;;;;;10.67;1.77;;;4.80;99.90;;;;;;4164866;28;20453;-78
2022/01/30 06:13:16;;;;;;;6.40;1.80;;;4.80;99.90;;;;;;4164285;28;20482;-77
2022/01/30 06:15:19;;;;;;;8.00;1.33;;;4.80;99.90;;;;;;4177124;28;20453;-77
2022/01/30 06:17:20;;;;;;;6.53;1.47;;;5.10;99.90;;;;;;4173017;28;20454;-77
2022/01/30 06:19:24;;;;;;;8.97;1.70;;;4.90;99.90;;;;;;4164467;28;20454;-77
2022/01/30 06:21:26;;;;;;;13.37;2.37;;;4.90;99.90;;;;;;4158820;28;20850;-75
2022/01/30 06:23:28;;;;;;;12.33;1.97;;;5.00;99.90;;;;;;4156179;28;20465;-75
2022/01/30 06:25:30;;;;;;;17.63;1.70;;;5.00;99.90;;;;;;4179593;28;20485;-75
2022/01/30 06:27:33;;;;;;;10.97;2.10;;;5.00;99.90;;;;;;4172584;28;20473;-75
2022/01/30 06:29:34;;;;;;;8.30;1.90;;;5.00;99.90;;;;;;4174147;28;20477;-77
2022/01/30 06:31:36;;;;;;;11.47;3.07;;;5.00;99.90;;;;;;4170357;28;20812;-75
2022/01/30 06:33:38;;;;;;;12.40;2.13;;;5.00;99.90;;;;;;4172678;28;20554;-75
2022/01/30 06:35:40;;;;;;;11.87;2.17;;;5.00;99.90;;;;;;4165998;28;20465;-76
2022/01/30 06:37:44;;;;;;;13.23;2.37;;;5.00;99.90;;;;;;4166283;28;20957;-75
2022/01/30 06:39:45;;;;;;;14.23;2.20;;;5.00;99.90;;;;;;4169083;28;21034;-75
2022/01/30 06:41:47;;;;;;;13.27;1.93;;;5.00;99.90;;;;;;4164942;28;20512;-78
2022/01/30 06:43:50;;;;;;;11.33;2.03;;;5.00;99.90;;;;;;4161592;28;20489;-77
2022/01/30 06:45:52;;;;;;;14.47;2.20;;;5.00;99.90;;;;;;4168923;28;21001;-76
2022/01/30 06:47:54;;;;;;;11.60;1.80;;;4.90;99.90;;;;;;4171360;28;20465;-78
2022/01/30 06:49:56;;;;;;;14.80;2.90;;;4.90;99.90;;;;;;4174545;28;20581;-77
2022/01/30 06:52:01;;;;;;;20.17;2.23;;;4.90;99.90;;;;;;4163313;28;20497;-78
2022/01/30 06:54:03;;;;;;;9.33;1.90;;;4.90;99.90;;;;;;4149046;28;20470;-77
2022/01/30 06:56:05;;;;;;;17.10;2.10;;;4.80;99.90;;;;;;4160381;28;20469;-78
2022/01/30 06:58:06;;;;;;;11.80;2.10;;;4.90;99.90;;;;;;4163260;28;20504;-78
2022/01/30 07:00:11;;;;;;;18.33;2.73;;;4.80;99.90;;;;;;4163904;28;21959;-78
2022/01/30 07:02:13;;;;;;;12.63;2.30;;;4.80;99.90;;;;;;4156527;28;20469;-77
2022/01/30 07:04:14;;;;;;;13.37;1.83;;;4.80;99.90;;;;;;4181140;28;20495;-78
2022/01/30 07:06:16;;;;;;;11.33;2.13;;;4.80;99.90;;;;;;4181120;28;20916;-77
2022/01/30 07:08:18;;;;;;;10.50;2.30;;;4.80;99.90;;;;;;4175010;28;20475;-76
2022/01/30 07:10:23;;;;;;;12.83;2.27;;;4.80;99.90;;;;;;4173345;28;20535;-77
2022/01/30 07:12:28;;;;;;;17.30;3.20;;;4.80;99.90;;;;;;4153443;28;20469;-78
2022/01/30 07:14:31;;;;;;;13.93;2.47;;;4.80;99.90;;;;;;4170342;28;20519;-74
2022/01/30 07:16:34;;;;;;;9.37;2.27;;;4.70;99.90;;;;;;4184913;28;20870;-77
2022/01/30 07:18:36;;;;;;;15.43;2.53;;;4.70;99.90;;;;;;4169251;28;20503;-76
2022/01/30 07:20:38;;;;;;;12.67;2.40;;;4.70;99.90;;;;;;4150059;28;20463;-76
2022/01/30 07:22:40;;;;;;;15.63;2.43;;;4.70;99.90;;;;;;4145952;28;20676;-77
2022/01/30 07:24:42;;;;;;;11.13;2.37;;;4.70;99.90;;;;;;4163490;28;20476;-75
2022/01/30 07:26:44;;;;;;;9.37;2.23;;;4.70;99.90;;;;;;4166057;28;20461;-75
2022/01/30 07:28:46;;;;;;;17.60;2.80;;;4.70;99.90;;;;;;4153646;28;20537;-75
2022/01/30 07:30:47;;;;;;;16.43;2.10;;;4.70;99.90;;;;;;4162847;28;20555;-74
2022/01/30 07:32:51;;;;;;;16.73;2.53;;;4.70;99.90;;;;;;4164175;28;20454;-74
2022/01/30 07:34:52;;;;;;;14.73;2.40;;;4.70;99.90;;;;;;4162838;28;20838;-80
2022/01/30 07:36:56;;;;;;;12.97;2.20;;;4.70;99.90;;;;;;4166529;28;20609;-75
2022/01/30 07:38:58;;;;;;;15.30;2.40;;;4.70;99.90;;;;;;4163183;28;20813;-74
2022/01/30 07:41:00;;;;;;;16.03;2.73;;;4.60;99.90;;;;;;4162320;28;20489;-74
2022/01/30 07:43:02;;;;;;;16.40;2.87;;;4.60;99.90;;;;;;4164324;28;20464;-75
2022/01/30 07:45:05;;;;;;;16.13;2.83;;;4.70;99.90;;;;;;4147482;28;20490;-75
2022/01/30 07:47:07;;;;;;;17.90;2.67;;;4.70;99.90;;;;;;4173774;28;20635;-75
2022/01/30 07:49:10;;;;;;;19.83;2.80;;;4.70;99.90;;;;;;4152173;28;20471;-75
2022/01/30 07:51:12;;;;;;;15.83;3.43;;;4.70;99.90;;;;;;4157611;28;20469;-76
2022/01/30 07:53:13;;;;;;;15.67;2.30;;;4.60;99.90;;;;;;4166052;28;20476;-75
2022/01/30 07:55:19;;;;;;;17.03;2.73;;;4.70;99.90;;;;;;4162520;28;20457;-75
2022/01/30 07:57:22;;;;;;;17.27;2.40;;;4.70;99.90;;;;;;4159613;28;20591;-78
2022/01/30 07:59:24;;;;;;;18.17;3.43;;;4.70;99.90;;;;;;4163029;28;20465;-76
2022/01/30 08:01:32;;;;;;;19.37;3.10;;;4.70;99.90;;;;;;4163930;28;20466;-75
2022/01/30 08:03:33;;;;;;;13.53;2.47;;;4.70;99.90;;;;;;4162700;28;20532;-77
2022/01/30 08:05:38;;;;;;;12.47;2.70;;;4.80;99.90;;;;;;4162899;28;20586;-79
2022/01/30 08:07:40;;;;;;;14.10;2.83;;;4.70;99.90;;;;;;4147746;28;20459;-75
2022/01/30 08:09:42;;;;;;;15.83;2.73;;;4.80;99.90;;;;;;4164731;28;20482;-76
2022/01/30 08:11:43;;;;;;;15.23;3.07;;;4.80;99.90;;;;;;4172304;28;21031;-76
2022/01/30 08:13:45;;;;;;;16.97;2.77;;;4.90;99.90;;;;;;4178907;28;20624;-77
2022/01/30 08:15:47;;;;;;;14.03;2.73;;;5.20;99.90;;;;;;4168315;28;20676;-77
2022/01/30 08:17:49;;;;;;;17.60;3.73;;;5.00;99.90;;;;;;4171475;28;20454;-77
2022/01/30 08:19:51;;;;;;;14.10;3.13;;;5.00;99.90;;;;;;4174927;28;20475;-77
2022/01/30 08:21:56;;;;;;;14.83;3.00;;;5.30;99.90;;;;;;4173086;28;20979;-75
2022/01/30 08:23:58;;;;;;;15.70;2.87;;;5.00;99.90;;;;;;4174951;28;20464;-75
2022/01/30 08:26:00;;;;;;;17.17;2.90;;;5.00;99.90;;;;;;4158383;28;20507;-77
2022/01/30 08:28:05;;;;;;;23.60;2.93;;;5.00;99.90;;;;;;4167516;28;20457;-77
2022/01/30 08:30:11;;;;;;;17.73;2.87;;;5.20;99.90;;;;;;4166535;28;20486;-75
2022/01/30 08:32:13;;;;;;;14.23;2.57;;;5.10;99.90;;;;;;4163218;28;20881;-75
2022/01/30 08:34:15;;;;;;;16.00;2.60;;;5.10;99.90;;;;;;4167702;28;20501;-76
2022/01/30 08:36:16;;;;;;;17.80;3.53;;;5.20;99.90;;;;;;4166034;28;20904;-76
2022/01/30 08:38:20;;;;;;;20.20;2.67;;;5.20;99.90;;;;;;4166504;28;20524;-76
2022/01/30 08:40:23;;;;;;;23.10;3.07;;;5.20;99.90;;;;;;4165965;28;20486;-75
2022/01/30 08:42:25;;;;;;;10.57;2.67;;;5.20;99.90;;;;;;4161413;28;20471;-78
2022/01/30 08:44:27;;;;;;;18.97;3.00;;;5.20;99.90;;;;;;4167918;28;20469;-78
2022/01/30 08:46:30;;;;;;;16.30;2.70;;;5.20;99.90;;;;;;4166312;28;20543;-76
2022/01/30 08:48:33;;;;;;;23.07;3.20;;;5.20;99.90;;;;;;4166716;28;20467;-77
2022/01/30 08:50:35;;;;;;;17.00;2.80;;;5.40;99.90;;;;;;4170346;28;20480;-77
2022/01/30 08:52:37;;;;;;;14.00;2.83;;;5.10;99.90;;;;;;4166310;28;20465;-77
2022/01/30 08:54:40;;;;;;;17.30;3.23;;;5.30;99.90;;;;;;4154320;28;20476;-77
2022/01/30 08:56:42;;;;;;;15.67;3.43;;;5.30;99.90;;;;;;4150376;28;20471;-77
2022/01/30 08:58:46;;;;;;;16.73;3.30;;;5.40;99.90;;;;;;4165176;28;20497;-78
2022/01/30 09:00:47;;;;;;;20.13;3.30;;;5.40;99.90;;;;;;4168746;28;20477;-77
2022/01/30 09:02:51;;;;;;;17.23;2.60;;;5.40;99.90;;;;;;4166445;28;20499;-77
2022/01/30 09:04:53;;;;;;;18.07;2.90;;;5.40;99.90;;;;;;4166744;28;20449;-77
2022/01/30 09:06:55;;;;;;;20.67;2.60;;;5.40;99.90;;;;;;4167685;28;20495;-79
2022/01/30 09:11:00;;;;;;;24.40;4.17;;;5.50;99.90;;;;;;4205393;22;20505;-82
2022/01/30 09:13:02;;;;;;;19.33;2.60;;;5.40;99.70;;;;;;4182088;28;20952;-81
2022/01/30 09:15:05;;;;;;;15.00;2.87;;;5.40;98.90;;;;;;4184485;28;20577;-81
2022/01/30 09:17:12;;;;;;;20.03;2.73;;;5.50;99.70;;;;;;4183048;28;20449;-81
2022/01/30 09:19:15;;;;;;;14.80;2.87;;;5.60;99.90;;;;;;4183354;28;20465;-82
2022/01/30 09:21:16;;;;;;;22.40;2.73;;;5.40;99.90;;;;;;4174727;28;20577;-82
2022/01/30 09:23:18;;;;;;;15.90;2.97;;;5.40;99.60;;;;;;4172562;28;21009;-82
2022/01/30 09:25:20;;;;;;;16.77;3.17;;;5.40;99.40;;;;;;4170753;28;20461;-81
2022/01/30 09:27:23;;;;;;;15.20;3.33;;;5.40;99.00;;;;;;4173024;28;20451;-82
2022/01/30 09:29:25;;;;;;;15.60;2.80;;;5.50;99.80;;;;;;4175808;28;20481;-82
2022/01/30 09:31:26;;;;;;;16.33;2.60;;;5.50;99.40;;;;;;4179956;28;21023;-82
2022/01/30 09:33:28;;;;;;;18.10;3.50;;;5.40;99.00;;;;;;4184024;28;20881;-82
2022/01/30 09:35:30;;;;;;;17.77;3.30;;;5.40;99.90;;;;;;4184102;28;20809;-82
2022/01/30 09:37:32;;;;;;;14.20;2.60;;;5.40;99.60;;;;;;4183535;28;20470;-82
2022/01/30 09:39:34;;;;;;;17.07;3.07;;;5.40;99.90;;;;;;4183786;28;20468;-81
2022/01/30 09:41:37;;;;;;;18.80;2.97;;;5.50;99.90;;;;;;4183593;28;20908;-82
2022/01/30 09:43:43;;;;;;;18.03;3.20;;;5.40;99.50;;;;;;4182453;28;20557;-82
2022/01/30 09:45:46;;;;;;;16.67;3.10;;;5.50;98.50;;;;;;4175764;28;21567;-80
2022/01/30 09:47:48;;;;;;;17.47;3.17;;;5.40;97.00;;;;;;4178137;28;20453;-83
2022/01/30 09:49:52;;;;;;;19.77;2.83;;;5.50;98.10;;;;;;4181104;28;20487;-81
2022/01/30 09:51:54;;;;;;;14.27;2.83;;;5.60;99.00;;;;;;4185259;28;20554;-87
2022/01/30 09:53:56;;;;;;;19.67;2.97;;;5.60;97.80;;;;;;4183262;28;20458;-80
2022/01/30 09:55:58;;;;;;;18.77;3.53;;;5.50;98.20;;;;;;4181841;28;20470;-80
2022/01/30 09:58:00;;;;;;;18.47;4.73;;;5.60;97.70;;;;;;4184135;28;20480;-80
2022/01/30 10:00:04;;;;;;;16.33;2.83;;;5.60;97.30;;;;;;4183760;28;20989;-80
2022/01/30 10:02:07;;;;;;;14.67;3.17;;;5.60;97.50;;;;;;4179303;28;20465;-80
2022/01/30 10:04:09;;;;;;;20.10;3.20;;;5.60;97.90;;;;;;4176728;28;20446;-80
2022/01/30 10:06:14;;;;;;;16.87;3.60;;;5.60;97.30;;;;;;4179562;28;20540;-80
2022/01/30 10:08:28;;;;;;;12.03;3.13;;;5.60;97.00;;;;;;4177638;28;20490;-80
2022/01/30 10:10:30;;;;;;;19.90;3.63;;;5.70;97.00;;;;;;4172769;28;20487;-80
2022/01/30 10:12:33;;;;;;;15.10;2.53;;;5.70;97.70;;;;;;4173694;28;20463;-81
2022/01/30 10:14:35;;;;;;;16.87;3.43;;;5.70;97.20;;;;;;4174644;28;20481;-80
2022/01/30 10:16:42;;;;;;;16.33;2.77;;;5.70;97.10;;;;;;4172918;28;20460;-80
2022/01/30 10:18:45;;;;;;;19.83;2.77;;;5.80;94.40;;;;;;4175977;28;20857;-80
2022/01/30 10:20:47;;;;;;;20.70;3.07;;;5.70;94.40;;;;;;4174345;28;20631;-80
2022/01/30 10:22:51;;;;;;;20.27;3.93;;;5.70;93.40;;;;;;4171515;28;20460;-80
2022/01/30 10:24:53;;;;;;;20.43;3.53;;;5.80;94.80;;;;;;4174800;28;20518;-80
2022/01/30 10:26:57;;;;;;;16.20;2.70;;;5.70;94.20;;;;;;4171157;28;20521;-80
2022/01/30 10:29:18;;;;;;;20.67;3.67;;;5.80;94.70;;;;;;4176218;28;20456;-80
2022/01/30 10:31:23;;;;;;;23.27;3.37;;;5.80;93.10;;;;;;4177833;28;20995;-80
2022/01/30 10:33:40;;;;;;;16.73;3.07;;;5.80;93.10;;;;;;4178844;28;20561;-81
2022/01/30 10:35:55;;;;;;;15.43;3.53;;;5.80;94.00;;;;;;4177388;28;20453;-80
2022/01/30 10:37:59;;;;;;;19.63;3.83;;;5.80;94.80;;;;;;4171682;28;20473;-80
2022/01/30 10:40:06;;;;;;;18.00;3.30;;;5.80;93.50;;;;;;4171282;28;20473;-80
2022/01/30 10:42:37;;;;;;;21.53;3.33;;;5.80;92.90;;;;;;4174415;28;20458;-80
2022/01/30 10:44:47;;;;;;;16.03;2.93;;;5.90;90.00;;;;;;4171914;28;20455;-80
2022/01/30 10:46:51;;;;;;;18.93;4.10;;;5.90;90.30;;;;;;4175945;28;20569;-80
2022/01/30 10:48:57;;;;;;;20.33;2.87;;;5.90;90.00;;;;;;4170421;28;20469;-80
2022/01/30 10:50:58;;;;;;;17.83;3.00;;;5.90;87.10;;;;;;4166542;28;20501;-80
2022/01/30 10:53:03;;;;;;;20.00;3.73;;;5.90;86.50;;;;;;4178160;28;20548;-80
2022/01/30 10:55:06;;;;;;;20.63;3.77;;;5.90;86.60;;;;;;4168893;28;20489;-80
2022/01/30 10:57:10;;;;;;;19.00;3.10;;;5.90;88.40;;;;;;4166709;28;20476;-79
2022/01/30 10:59:13;;;;;;;22.43;3.40;;;5.90;90.00;;;;;;4179498;28;20932;-79
2022/01/30 11:01:23;;;;;;;14.27;2.80;;;5.90;88.40;;;;;;4185203;28;20475;-80
2022/01/30 11:03:44;;;;;;;20.23;3.00;;;5.90;87.40;;;;;;4176646;28;20469;-81
2022/01/30 11:05:59;;;;;;;20.93;2.57;;;5.90;86.90;;;;;;4178070;28;20465;-81
2022/01/30 11:08:00;;;;;;;20.33;2.73;;;5.90;88.10;;;;;;4174975;28;21092;-81
2022/01/30 11:10:08;;;;;;;18.50;2.67;;;5.80;89.20;;;;;;4177158;28;20481;-81
2022/01/30 11:12:14;;;;;;;16.23;2.70;;;5.90;90.60;;;;;;4181970;28;20458;-81
2022/01/30 11:14:20;;;;;;;13.27;3.40;;;5.90;91.20;;;;;;4180920;28;20454;-81
2022/01/30 11:18:42;;;;;;;13.60;3.13;;;5.90;89.90;;;;;;4172798;28;20954;-81
2022/01/30 11:20:46;;;;;;;18.27;3.57;;;5.90;90.10;;;;;;4181945;28;20562;-81
2022/01/30 11:22:52;;;;;;;19.30;3.10;;;5.90;90.10;;;;;;4180880;28;20549;-81
2022/01/30 11:25:12;;;;;;;18.87;3.00;;;5.90;89.90;;;;;;4236992;27;20573;-81
2022/01/30 11:27:15;;;;;;;19.13;2.97;;;5.90;89.20;;;;;;4210575;28;20456;-80